Time;durP1;ratioP1;P1;durP2;ratioP2;P2;SDS_P1;SDS_P2;PMS_P1;PMS_P2;Temp;Humidity;BMP_temperature;BMP_pressure;BME280_temperature;BME280_humidity;BME280_pressure;Samples;Min_cycle;Max_cycle;Signal;HPM_P1;HPM_P2
2023/01/23 00:01:17;;;;;;;39.90;24.30;;;2.70;99.90;;;;;;5073663;28;20242;-69
2023/01/23 00:03:43;;;;;;;43.93;25.07;;;2.80;99.90;;;;;;5073612;28;20164;-70
2023/01/23 00:06:13;;;;;;;43.57;25.53;;;2.90;99.90;;;;;;5073546;28;20169;-69
2023/01/23 00:08:41;;;;;;;47.73;26.23;;;2.90;99.90;;;;;;5055899;28;20307;-70
2023/01/23 00:11:09;;;;;;;44.63;25.87;;;3.00;99.90;;;;;;5073649;28;20167;-69
2023/01/23 00:13:35;;;;;;;49.37;27.07;;;3.10;99.90;;;;;;5073307;28;20169;-68
2023/01/23 00:16:09;;;;;;;45.40;26.87;;;3.20;99.90;;;;;;5073692;28;20175;-69
2023/01/23 00:18:34;;;;;;;44.07;25.80;;;3.20;99.90;;;;;;5073358;28;20169;-70
2023/01/23 00:21:09;;;;;;;43.90;26.43;;;3.20;99.90;;;;;;5073296;28;20219;-69
2023/01/23 00:23:35;;;;;;;44.03;26.50;;;3.20;99.90;;;;;;5073537;28;20174;-69
2023/01/23 00:26:11;;;;;;;46.23;27.30;;;3.20;99.90;;;;;;5073487;28;20177;-70
2023/01/23 00:28:37;;;;;;;44.60;26.60;;;3.20;99.90;;;;;;5072932;28;20251;-69
2023/01/23 00:31:24;;;;;;;46.13;25.80;;;3.10;98.80;;;;;;5073403;28;20196;-70
2023/01/23 00:33:56;;;;;;;48.67;26.07;;;3.10;99.90;;;;;;5072964;28;20188;-69
2023/01/23 00:36:23;;;;;;;46.07;26.23;;;3.00;99.90;;;;;;5073387;28;20259;-69
2023/01/23 00:38:48;;;;;;;45.73;26.90;;;3.10;99.90;;;;;;5073106;28;20226;-69
2023/01/23 00:41:14;;;;;;;50.07;27.73;;;3.10;99.90;;;;;;5073289;28;20204;-69
2023/01/23 00:43:40;;;;;;;48.13;27.17;;;3.10;99.90;;;;;;5072908;28;20176;-68
2023/01/23 00:46:06;;;;;;;48.00;26.97;;;3.10;99.90;;;;;;5073265;28;20172;-69
2023/01/23 00:48:31;;;;;;;50.43;26.90;;;3.00;99.90;;;;;;5073134;28;20165;-69
2023/01/23 00:50:57;;;;;;;53.33;27.37;;;3.00;99.90;;;;;;5055062;28;20179;-69
2023/01/23 00:53:23;;;;;;;51.07;27.40;;;3.00;99.90;;;;;;5072958;28;20318;-69
2023/01/23 00:55:49;;;;;;;50.73;27.30;;;2.80;99.90;;;;;;5073050;28;20243;-68
2023/01/23 00:58:15;;;;;;;55.23;28.63;;;2.80;99.90;;;;;;5072684;28;20632;-70
2023/01/23 01:00:40;;;;;;;54.63;27.67;;;2.80;99.90;;;;;;5073057;28;20644;-69
2023/01/23 01:03:07;;;;;;;52.07;28.03;;;2.80;99.90;;;;;;5074741;28;20175;-68
2023/01/23 01:05:33;;;;;;;53.77;28.87;;;2.80;99.90;;;;;;5077059;28;20172;-68
2023/01/23 01:07:59;;;;;;;56.60;27.73;;;2.90;99.90;;;;;;5076954;28;20297;-68
2023/01/23 01:10:29;;;;;;;53.97;30.47;;;2.80;99.90;;;;;;5076867;28;20669;-68
2023/01/23 01:12:59;;;;;;;53.50;28.23;;;2.90;99.90;;;;;;5076896;28;20165;-69
2023/01/23 01:15:26;;;;;;;55.80;27.97;;;2.90;99.90;;;;;;5077058;28;20172;-69
2023/01/23 01:17:53;;;;;;;59.03;29.27;;;2.70;99.90;;;;;;5058878;28;20172;-69
2023/01/23 01:20:22;;;;;;;54.97;28.93;;;2.60;99.90;;;;;;5076823;28;20164;-70
2023/01/23 01:22:48;;;;;;;53.00;27.57;;;2.60;99.90;;;;;;5076739;28;20210;-69
2023/01/23 01:25:13;;;;;;;55.37;27.70;;;2.50;99.90;;;;;;5076577;28;20196;-69
2023/01/23 01:27:39;;;;;;;53.23;27.87;;;2.40;99.90;;;;;;5076424;28;20168;-69
2023/01/23 01:30:05;;;;;;;52.57;27.67;;;2.30;99.90;;;;;;5058883;28;20524;-69
2023/01/23 01:32:35;;;;;;;55.30;26.77;;;2.40;99.90;;;;;;5076716;28;20219;-69
2023/01/23 01:35:02;;;;;;;47.47;25.83;;;2.40;99.90;;;;;;5076541;28;20165;-70
2023/01/23 01:37:27;;;;;;;50.23;27.27;;;2.40;99.90;;;;;;5076485;28;20180;-69
2023/01/23 01:39:53;;;;;;;50.67;26.67;;;2.40;99.90;;;;;;5076223;28;20496;-69
2023/01/23 01:42:19;;;;;;;56.00;27.30;;;2.40;99.90;;;;;;5075842;28;20212;-69
2023/01/23 01:44:59;;;;;;;53.77;27.73;;;2.30;99.90;;;;;;5076658;28;20164;-69
2023/01/23 01:47:25;;;;;;;51.07;26.60;;;2.30;99.90;;;;;;5076850;28;20208;-69
2023/01/23 01:50:02;;;;;;;55.23;28.47;;;2.30;99.90;;;;;;5076424;28;20620;-69
2023/01/23 01:52:28;;;;;;;51.43;26.90;;;2.30;99.90;;;;;;5076429;28;20315;-68
2023/01/23 01:55:01;;;;;;;41.47;22.40;;;2.30;99.90;;;;;;5076141;28;20216;-69
2023/01/23 01:57:34;;;;;;;55.27;28.40;;;2.30;99.90;;;;;;5076593;28;20515;-68
2023/01/23 02:00:14;;;;;;;53.43;26.93;;;2.30;99.90;;;;;;5076333;28;20199;-69
2023/01/23 02:02:50;;;;;;;54.30;25.83;;;2.20;99.90;;;;;;5076033;28;20220;-70
2023/01/23 02:05:21;;;;;;;57.43;29.60;;;2.20;99.90;;;;;;5075962;28;20635;-69
2023/01/23 02:07:46;;;;;;;52.77;25.27;;;2.20;99.90;;;;;;5075987;28;20176;-69
2023/01/23 02:10:13;;;;;;;57.37;29.47;;;2.10;99.90;;;;;;5057687;28;20169;-69
2023/01/23 02:12:39;;;;;;;57.97;28.20;;;2.20;99.90;;;;;;5075821;28;20770;-69
2023/01/23 02:15:06;;;;;;;57.73;26.97;;;2.20;99.90;;;;;;5075150;28;20180;-69
2023/01/23 02:17:35;;;;;;;57.00;27.20;;;2.20;99.90;;;;;;5075875;28;20191;-69
2023/01/23 02:20:16;;;;;;;64.27;31.00;;;2.20;99.90;;;;;;5075742;28;20233;-69
2023/01/23 02:22:52;;;;;;;64.33;30.10;;;2.20;99.90;;;;;;5075547;28;20668;-69
2023/01/23 02:25:30;;;;;;;59.63;28.70;;;2.20;99.90;;;;;;5075303;28;20164;-69
2023/01/23 02:27:56;;;;;;;66.27;31.30;;;2.30;99.90;;;;;;5057545;28;20168;-69
2023/01/23 02:30:22;;;;;;;60.00;29.20;;;2.30;99.90;;;;;;5057595;28;20175;-69
2023/01/23 02:32:48;;;;;;;63.70;29.30;;;2.30;99.90;;;;;;5075515;28;20168;-69
2023/01/23 02:35:26;;;;;;;62.50;28.07;;;2.20;99.90;;;;;;5075372;28;20179;-69
2023/01/23 02:37:54;;;;;;;65.13;30.07;;;2.20;99.90;;;;;;5057297;28;20165;-69
2023/01/23 02:40:36;;;;;;;63.23;31.10;;;2.30;99.90;;;;;;5075013;28;20176;-69
2023/01/23 02:43:08;;;;;;;56.83;25.17;;;2.20;99.90;;;;;;5075389;28;20215;-69
2023/01/23 02:45:34;;;;;;;65.90;31.23;;;2.20;99.90;;;;;;5075243;28;20192;-69
2023/01/23 02:48:00;;;;;;;55.80;27.27;;;2.20;99.90;;;;;;5075099;28;20191;-69
2023/01/23 02:50:27;;;;;;;68.87;31.00;;;2.20;99.90;;;;;;5057043;28;20172;-69
2023/01/23 02:52:53;;;;;;;71.53;31.63;;;2.20;99.90;;;;;;5074532;28;20208;-69
2023/01/23 02:55:20;;;;;;;63.40;30.73;;;2.20;99.90;;;;;;5074857;28;20184;-69
2023/01/23 02:57:45;;;;;;;69.63;33.20;;;2.20;99.90;;;;;;5074981;28;20694;-69
2023/01/23 03:00:15;;;;;;;66.83;31.33;;;2.20;99.90;;;;;;5074854;28;20255;-68
2023/01/23 03:02:40;;;;;;;65.57;29.97;;;2.20;99.90;;;;;;5056726;28;20678;-69
2023/01/23 03:05:07;;;;;;;68.30;30.23;;;2.20;99.90;;;;;;5074480;28;20208;-69
2023/01/23 03:07:32;;;;;;;64.37;29.97;;;2.20;99.90;;;;;;5074365;28;20288;-69
2023/01/23 03:09:58;;;;;;;77.37;34.60;;;2.20;99.90;;;;;;5074756;28;20253;-69
2023/01/23 03:12:23;;;;;;;75.07;30.67;;;2.20;99.90;;;;;;5074608;28;20183;-69
2023/01/23 03:14:53;;;;;;;70.30;32.87;;;2.30;99.90;;;;;;5074747;28;20577;-69
2023/01/23 03:17:18;;;;;;;78.13;33.10;;;2.30;99.90;;;;;;5074548;28;20168;-69
2023/01/23 03:19:44;;;;;;;67.73;32.13;;;2.30;99.90;;;;;;5074314;28;20620;-69
2023/01/23 03:22:09;;;;;;;70.80;32.53;;;2.20;99.90;;;;;;5074054;28;20212;-69
2023/01/23 03:24:35;;;;;;;64.47;27.67;;;2.20;99.90;;;;;;5074472;28;20180;-67
2023/01/23 03:27:01;;;;;;;71.20;32.07;;;2.20;99.90;;;;;;5073698;28;20168;-68
2023/01/23 03:32:13;;;;;;;72.77;33.97;;;2.20;99.90;;;;;;5074406;28;20184;-67
2023/01/23 03:34:40;;;;;;;69.97;31.40;;;2.20;99.90;;;;;;5074220;28;20562;-69
2023/01/23 03:37:07;;;;;;;68.10;30.60;;;2.30;99.90;;;;;;5073865;28;20200;-69
2023/01/23 03:42:17;;;;;;;71.57;32.40;;;2.30;99.90;;;;;;5074047;28;20223;-68
2023/01/23 03:44:43;;;;;;;72.10;28.97;;;2.40;99.90;;;;;;5074032;28;20169;-69
2023/01/23 03:47:08;;;;;;;59.73;24.57;;;2.30;99.90;;;;;;5073960;28;20173;-69
2023/01/23 03:49:34;;;;;;;73.37;33.73;;;2.20;99.90;;;;;;5073872;28;20221;-68
2023/01/23 03:52:00;;;;;;;77.83;33.47;;;2.20;99.90;;;;;;5059617;28;20318;-68
2023/01/23 03:54:26;;;;;;;68.73;29.87;;;2.20;99.90;;;;;;5073845;28;20192;-68
2023/01/23 03:56:52;;;;;;;66.10;31.30;;;2.30;99.90;;;;;;5074025;28;20184;-70
2023/01/23 03:59:18;;;;;;;73.93;33.23;;;2.30;99.90;;;;;;5073777;28;20257;-70
2023/01/23 04:01:43;;;;;;;77.37;34.63;;;2.30;99.90;;;;;;5073812;28;20253;-70
2023/01/23 04:04:09;;;;;;;74.60;33.17;;;2.40;99.90;;;;;;5073818;28;20169;-69
2023/01/23 04:06:35;;;;;;;67.77;32.70;;;2.30;99.90;;;;;;5073434;28;20176;-68
2023/01/23 04:09:01;;;;;;;74.83;33.53;;;2.30;99.90;;;;;;5072427;28;20582;-69
2023/01/23 04:11:26;;;;;;;68.27;30.83;;;2.30;99.90;;;;;;5073857;28;20628;-69
2023/01/23 04:13:53;;;;;;;72.23;31.93;;;2.30;99.90;;;;;;5073571;28;20677;-68
2023/01/23 04:16:21;;;;;;;76.20;33.47;;;2.40;99.90;;;;;;5072391;28;20636;-70
2023/01/23 04:18:47;;;;;;;76.67;34.07;;;2.40;99.90;;;;;;5073301;28;20507;-68
2023/01/23 04:21:13;;;;;;;71.97;32.57;;;2.40;99.90;;;;;;5073047;28;20212;-68
2023/01/23 04:23:38;;;;;;;69.97;32.43;;;2.50;99.90;;;;;;5073452;28;20176;-68
2023/01/23 04:26:04;;;;;;;71.23;31.87;;;2.50;99.90;;;;;;5073577;28;20227;-68
2023/01/23 04:28:30;;;;;;;76.67;34.47;;;2.40;99.90;;;;;;5073282;28;20568;-69
2023/01/23 04:30:55;;;;;;;73.40;32.27;;;2.50;99.90;;;;;;5073431;28;20187;-68
2023/01/23 04:33:21;;;;;;;73.60;32.53;;;2.40;99.90;;;;;;5073259;28;20643;-69
2023/01/23 04:35:54;;;;;;;69.07;31.93;;;2.40;99.90;;;;;;5073047;28;20303;-69
2023/01/23 04:38:21;;;;;;;68.77;29.90;;;2.40;99.90;;;;;;5073157;28;20643;-68
2023/01/23 04:40:48;;;;;;;77.07;31.27;;;2.40;99.90;;;;;;5073218;28;20203;-70
2023/01/23 04:43:14;;;;;;;74.50;31.97;;;2.30;99.90;;;;;;5073164;28;20196;-69
2023/01/23 04:45:40;;;;;;;77.07;32.20;;;2.40;99.90;;;;;;5073032;28;20509;-69
2023/01/23 04:48:06;;;;;;;76.87;33.17;;;2.30;99.90;;;;;;5073063;28;20181;-69
2023/01/23 04:50:31;;;;;;;72.07;31.77;;;2.40;99.90;;;;;;5071524;28;20184;-69
2023/01/23 04:52:57;;;;;;;70.03;31.13;;;2.40;99.90;;;;;;5072717;28;20579;-69
2023/01/23 04:55:23;;;;;;;80.50;33.60;;;2.40;99.90;;;;;;5072788;28;20205;-69
2023/01/23 04:57:49;;;;;;;73.67;31.40;;;2.50;99.90;;;;;;5072855;28;20199;-69
2023/01/23 05:00:15;;;;;;;73.90;33.13;;;2.30;99.90;;;;;;5073032;28;20219;-69
2023/01/23 05:02:41;;;;;;;70.57;29.80;;;2.40;99.90;;;;;;5072918;28;20237;-69
2023/01/23 05:05:08;;;;;;;74.43;33.13;;;2.40;99.90;;;;;;5072498;28;20660;-69
2023/01/23 05:07:33;;;;;;;69.43;32.53;;;2.40;99.90;;;;;;5072825;28;20172;-69
2023/01/23 05:09:59;;;;;;;71.87;32.73;;;2.40;99.90;;;;;;5072841;28;20225;-69
2023/01/23 05:12:25;;;;;;;68.93;31.37;;;2.50;99.90;;;;;;5072829;28;20621;-69
2023/01/23 05:14:50;;;;;;;69.90;30.73;;;2.50;99.90;;;;;;5072818;28;20195;-69
2023/01/23 05:17:17;;;;;;;70.10;32.70;;;2.50;99.90;;;;;;5072748;28;20286;-70
2023/01/23 05:19:42;;;;;;;71.10;31.37;;;2.50;99.90;;;;;;5072338;28;20451;-69
2023/01/23 05:22:08;;;;;;;62.23;27.00;;;2.50;99.90;;;;;;5072625;28;20204;-69
2023/01/23 05:24:33;;;;;;;77.20;33.47;;;2.40;99.90;;;;;;5072494;28;20172;-69
2023/01/23 05:26:59;;;;;;;75.23;32.43;;;2.50;99.90;;;;;;5072376;28;20636;-69
2023/01/23 05:29:25;;;;;;;74.37;31.37;;;2.50;99.90;;;;;;5072546;28;20180;-68
2023/01/23 05:31:50;;;;;;;73.10;31.87;;;2.50;99.90;;;;;;5072721;28;20180;-70
2023/01/23 05:34:16;;;;;;;73.27;30.53;;;2.50;99.90;;;;;;5072456;28;20510;-70
2023/01/23 05:36:41;;;;;;;77.53;32.50;;;2.50;99.90;;;;;;5072533;28;20640;-70
2023/01/23 05:39:07;;;;;;;78.63;32.67;;;2.40;99.90;;;;;;5072201;28;20172;-67
2023/01/23 05:41:32;;;;;;;85.47;34.97;;;2.40;99.90;;;;;;5072407;28;20755;-69
2023/01/23 05:43:58;;;;;;;76.30;30.27;;;2.40;99.90;;;;;;5054583;28;20267;-67
2023/01/23 05:46:24;;;;;;;72.87;29.50;;;2.40;99.90;;;;;;5072483;28;20651;-68
2023/01/23 05:48:50;;;;;;;82.80;33.77;;;2.40;99.90;;;;;;5072871;28;20247;-68
2023/01/23 05:51:17;;;;;;;85.00;32.67;;;2.40;99.90;;;;;;5076232;28;20176;-68
2023/01/23 05:53:43;;;;;;;80.03;33.93;;;2.40;99.90;;;;;;5076436;28;20249;-69
2023/01/23 05:56:08;;;;;;;72.07;31.83;;;2.30;99.90;;;;;;5076706;28;20164;-69
2023/01/23 05:58:34;;;;;;;76.80;32.93;;;2.30;99.90;;;;;;5058368;28;20179;-70
2023/01/23 06:01:02;;;;;;;79.90;32.40;;;2.30;99.90;;;;;;5075714;28;20176;-69
2023/01/23 06:03:28;;;;;;;72.83;30.07;;;2.30;99.90;;;;;;5075582;28;20620;-69
2023/01/23 06:05:53;;;;;;;84.57;32.73;;;2.40;99.90;;;;;;5075758;28;20168;-69
2023/01/23 06:08:19;;;;;;;84.03;32.97;;;2.40;99.90;;;;;;5075478;28;20180;-69
2023/01/23 06:10:45;;;;;;;72.83;31.67;;;2.30;99.90;;;;;;5075312;28;20172;-68
2023/01/23 06:13:10;;;;;;;81.00;31.10;;;2.40;99.90;;;;;;5075586;28;20172;-69
2023/01/23 06:15:36;;;;;;;89.17;35.07;;;2.40;99.90;;;;;;5057675;28;20179;-69
2023/01/23 06:18:02;;;;;;;78.87;32.53;;;2.60;99.90;;;;;;5074804;28;20247;-70
2023/01/23 06:20:28;;;;;;;72.57;32.83;;;2.50;99.90;;;;;;5075272;28;20247;-70
2023/01/23 06:22:53;;;;;;;75.27;31.80;;;2.50;99.90;;;;;;5075010;28;20517;-70
2023/01/23 06:25:20;;;;;;;71.70;31.17;;;2.50;99.90;;;;;;5075340;28;20184;-70
2023/01/23 06:27:46;;;;;;;79.20;32.73;;;2.50;99.90;;;;;;5075256;28;20176;-70
2023/01/23 06:30:12;;;;;;;80.60;32.37;;;2.50;99.90;;;;;;5075375;28;20505;-70
2023/01/23 06:32:38;;;;;;;77.23;32.60;;;2.40;99.90;;;;;;5075393;28;20696;-70
2023/01/23 06:35:04;;;;;;;84.20;33.27;;;2.50;99.90;;;;;;5074818;28;20528;-70
2023/01/23 06:37:30;;;;;;;79.03;34.13;;;2.60;99.90;;;;;;5056980;28;20540;-69
2023/01/23 06:39:55;;;;;;;76.30;33.50;;;2.60;99.90;;;;;;5074877;28;20179;-69
2023/01/23 06:42:21;;;;;;;65.40;27.57;;;2.60;99.90;;;;;;5074820;28;20212;-69
2023/01/23 06:44:47;;;;;;;69.13;30.13;;;2.50;99.90;;;;;;5074532;28;20176;-69
2023/01/23 06:47:12;;;;;;;70.03;31.70;;;2.50;99.90;;;;;;5074727;28;20256;-70
2023/01/23 06:49:38;;;;;;;72.93;30.07;;;2.50;99.90;;;;;;5074784;28;20222;-70
2023/01/23 06:52:04;;;;;;;75.60;32.50;;;2.50;99.90;;;;;;5074572;28;20261;-70
2023/01/23 06:54:29;;;;;;;79.07;31.97;;;2.50;99.90;;;;;;5074537;28;20185;-70
2023/01/23 06:56:55;;;;;;;72.47;31.93;;;2.40;99.90;;;;;;5074424;28;20233;-70
2023/01/23 06:59:21;;;;;;;76.10;32.97;;;2.50;99.90;;;;;;5073906;28;20240;-70
2023/01/23 07:01:46;;;;;;;78.77;32.23;;;2.40;99.90;;;;;;5074686;28;20208;-70
2023/01/23 07:04:12;;;;;;;73.00;30.00;;;2.40;99.90;;;;;;5074823;28;20255;-69
2023/01/23 07:06:38;;;;;;;78.10;32.27;;;2.50;99.90;;;;;;5073902;28;20195;-70
2023/01/23 07:09:03;;;;;;;71.53;32.03;;;2.60;99.90;;;;;;5074457;28;20164;-69
2023/01/23 07:11:29;;;;;;;72.67;31.47;;;2.50;99.90;;;;;;5074354;28;20204;-70
2023/01/23 07:13:55;;;;;;;66.33;28.23;;;2.60;99.90;;;;;;5074172;28;20176;-70
2023/01/23 07:16:20;;;;;;;81.63;33.10;;;2.60;99.90;;;;;;5074223;28;20570;-69
2023/01/23 07:18:46;;;;;;;61.43;26.23;;;2.60;99.90;;;;;;5055868;28;20173;-69
2023/01/23 07:21:11;;;;;;;65.93;31.10;;;2.60;99.90;;;;;;5056036;28;20585;-69
2023/01/23 07:23:37;;;;;;;71.40;31.03;;;2.60;99.90;;;;;;5074374;28;20211;-69
2023/01/23 07:26:08;;;;;;;68.03;31.20;;;2.60;99.90;;;;;;5074015;28;20176;-72
2023/01/23 07:28:35;;;;;;;72.23;32.20;;;2.60;99.90;;;;;;5073859;28;20168;-70
2023/01/23 07:31:01;;;;;;;70.10;31.33;;;2.60;99.90;;;;;;5073792;28;20161;-70
2023/01/23 07:33:26;;;;;;;72.07;31.07;;;2.60;99.90;;;;;;5074058;28;20195;-70
2023/01/23 07:35:52;;;;;;;60.93;25.13;;;2.60;99.90;;;;;;5074056;28;20192;-70
2023/01/23 07:38:18;;;;;;;69.67;31.87;;;2.60;99.90;;;;;;5074110;28;20175;-69
2023/01/23 07:40:44;;;;;;;72.13;28.20;;;2.60;99.90;;;;;;5073407;28;20179;-70
2023/01/23 07:43:11;;;;;;;69.33;30.10;;;2.60;99.90;;;;;;5052896;28;20259;-70
2023/01/23 07:45:37;;;;;;;71.57;30.50;;;2.60;99.90;;;;;;5059788;28;20173;-71
2023/01/23 07:48:03;;;;;;;59.53;26.27;;;2.60;99.90;;;;;;5051973;28;20234;-68
2023/01/23 07:50:29;;;;;;;71.50;28.27;;;2.60;99.90;;;;;;5058928;28;20280;-68
2023/01/23 07:52:54;;;;;;;70.73;30.90;;;2.60;99.90;;;;;;5053126;28;20256;-70
2023/01/23 07:55:20;;;;;;;74.50;31.50;;;2.60;99.90;;;;;;5053001;28;20541;-72
2023/01/23 07:57:46;;;;;;;53.13;22.17;;;2.70;99.90;;;;;;5052703;28;20170;-70
2023/01/23 08:00:11;;;;;;;76.20;30.17;;;2.70;99.90;;;;;;5064890;28;20200;-70
2023/01/23 08:02:37;;;;;;;69.13;30.53;;;2.60;99.90;;;;;;5052878;28;20263;-72
2023/01/23 08:05:03;;;;;;;73.37;29.97;;;2.70;99.90;;;;;;5063748;28;20228;-71
2023/01/23 08:07:29;;;;;;;69.20;31.00;;;2.70;99.90;;;;;;5061777;28;20224;-71
2023/01/23 08:09:54;;;;;;;73.97;32.40;;;2.70;99.90;;;;;;5086913;28;20181;-71
2023/01/23 08:12:20;;;;;;;72.43;31.57;;;2.70;99.90;;;;;;5059486;28;20637;-71
2023/01/23 08:14:46;;;;;;;71.97;31.77;;;2.80;99.90;;;;;;5058016;28;20181;-70
2023/01/23 08:17:12;;;;;;;76.57;32.90;;;2.90;99.90;;;;;;5057936;28;20195;-71
2023/01/23 08:19:38;;;;;;;72.50;33.20;;;2.80;99.90;;;;;;5036542;28;20185;-71
2023/01/23 08:22:03;;;;;;;72.00;32.23;;;2.90;99.90;;;;;;5086381;28;20270;-71
2023/01/23 08:24:29;;;;;;;69.30;32.37;;;3.00;99.90;;;;;;5066759;28;20191;-71
2023/01/23 08:26:55;;;;;;;73.17;33.17;;;3.00;99.90;;;;;;5069318;28;20680;-71
2023/01/23 08:29:21;;;;;;;54.67;22.60;;;3.00;99.90;;;;;;5047086;28;20199;-69
2023/01/23 08:31:47;;;;;;;60.80;25.87;;;2.90;99.90;;;;;;5051660;28;20188;-71
2023/01/23 08:34:12;;;;;;;63.33;28.10;;;2.90;99.90;;;;;;5069606;28;20271;-71
2023/01/23 08:36:38;;;;;;;68.67;32.40;;;2.80;99.90;;;;;;5071459;28;20198;-71
2023/01/23 08:39:04;;;;;;;73.17;32.53;;;2.90;99.90;;;;;;5053279;28;20238;-70
2023/01/23 08:41:30;;;;;;;67.73;32.17;;;2.90;99.90;;;;;;5056637;28;20718;-72
2023/01/23 08:44:00;;;;;;;66.40;32.27;;;3.00;99.90;;;;;;5055410;28;20181;-72
2023/01/23 08:46:27;;;;;;;69.30;32.80;;;3.10;99.90;;;;;;5052643;28;20177;-72
2023/01/23 08:48:52;;;;;;;75.47;32.47;;;3.00;99.90;;;;;;5034943;28;20643;-71
2023/01/23 08:51:18;;;;;;;69.80;30.60;;;3.10;99.90;;;;;;5062557;28;20276;-72
2023/01/23 08:53:43;;;;;;;64.50;30.87;;;3.00;99.90;;;;;;5056466;28;20200;-72
2023/01/23 08:56:21;;;;;;;63.20;30.63;;;3.20;99.90;;;;;;5049237;28;20196;-72
2023/01/23 08:58:46;;;;;;;68.43;31.57;;;3.10;99.90;;;;;;5062268;28;20201;-72
2023/01/23 09:01:14;;;;;;;62.73;28.53;;;3.20;99.90;;;;;;5065873;28;20267;-72
2023/01/23 09:03:40;;;;;;;66.47;32.23;;;3.20;99.90;;;;;;5064476;28;20199;-72
2023/01/23 09:06:07;;;;;;;63.73;30.03;;;3.30;99.90;;;;;;5056129;28;20652;-73
2023/01/23 09:08:33;;;;;;;59.30;26.37;;;3.30;99.90;;;;;;5057604;28;20185;-72
2023/01/23 09:11:01;;;;;;;62.47;29.70;;;3.20;99.90;;;;;;5065424;28;20228;-72
2023/01/23 09:13:26;;;;;;;64.87;30.30;;;3.20;99.90;;;;;;5053697;28;20306;-73
2023/01/23 09:15:52;;;;;;;65.30;30.37;;;3.30;99.90;;;;;;5056256;28;20383;-72
2023/01/23 09:18:18;;;;;;;64.47;31.07;;;3.30;99.90;;;;;;5060565;28;20694;-72
2023/01/23 09:20:43;;;;;;;60.57;29.30;;;3.30;99.90;;;;;;5052223;28;20177;-72
2023/01/23 09:23:09;;;;;;;61.13;30.27;;;3.30;99.90;;;;;;5054413;28;20221;-72
2023/01/23 09:25:36;;;;;;;68.03;30.37;;;3.40;99.90;;;;;;5042724;28;20208;-72
2023/01/23 09:28:02;;;;;;;60.50;23.93;;;3.20;99.90;;;;;;5072141;28;20184;-72
2023/01/23 09:30:27;;;;;;;64.63;30.63;;;3.20;99.90;;;;;;5062096;28;20195;-72
2023/01/23 09:32:53;;;;;;;65.60;31.87;;;3.20;99.90;;;;;;5056077;28;20295;-73
2023/01/23 09:35:19;;;;;;;75.60;31.53;;;3.30;99.90;;;;;;5038243;28;20539;-72
2023/01/23 09:37:59;;;;;;;62.33;30.53;;;3.30;99.90;;;;;;5058480;28;20193;-72
2023/01/23 09:40:35;;;;;;;62.67;29.83;;;3.50;99.90;;;;;;5047487;28;20622;-70
2023/01/23 09:43:22;;;;;;;63.30;32.10;;;3.60;99.90;;;;;;5045866;28;20217;-72
2023/01/23 09:46:06;;;;;;;59.13;29.67;;;3.60;99.90;;;;;;5060711;28;20185;-72
2023/01/23 09:48:59;;;;;;;56.97;27.30;;;3.60;99.90;;;;;;5056143;28;20192;-72
2023/01/23 09:51:36;;;;;;;64.13;30.77;;;3.50;99.90;;;;;;5067145;28;20177;-72
2023/01/23 09:54:14;;;;;;;64.43;30.57;;;3.60;99.90;;;;;;5075046;28;20200;-72
2023/01/23 09:56:45;;;;;;;62.47;30.93;;;3.70;99.90;;;;;;5057313;28;20183;-72
2023/01/23 09:59:30;;;;;;;56.63;26.53;;;3.60;99.90;;;;;;5067842;28;20184;-71
2023/01/23 10:01:56;;;;;;;66.23;29.67;;;3.60;99.90;;;;;;5056472;28;20223;-71
2023/01/23 10:04:22;;;;;;;60.83;30.27;;;3.50;99.90;;;;;;5054619;28;20184;-71
2023/01/23 10:07:02;;;;;;;64.37;28.70;;;3.50;99.90;;;;;;5068761;28;20180;-71
2023/01/23 10:09:44;;;;;;;61.13;29.50;;;3.50;99.90;;;;;;5074995;28;20172;-71
2023/01/23 10:12:24;;;;;;;58.07;28.10;;;3.60;99.90;;;;;;5074916;28;20169;-71
2023/01/23 10:15:19;;;;;;;59.20;29.47;;;3.60;99.90;;;;;;5053364;28;20225;-71
2023/01/23 10:17:54;;;;;;;58.73;29.37;;;3.50;99.90;;;;;;5070608;28;20239;-72
2023/01/23 10:21:12;;;;;;;61.10;29.00;;;3.60;99.90;;;;;;5069981;28;20200;-72
2023/01/23 10:23:59;;;;;;;56.70;29.07;;;3.70;99.90;;;;;;5016887;28;20312;-72
2023/01/23 10:26:42;;;;;;;58.40;29.17;;;3.80;99.90;;;;;;5055627;28;20181;-72
2023/01/23 10:29:29;;;;;;;56.53;30.23;;;3.80;99.90;;;;;;5057127;28;20608;-72
2023/01/23 10:31:57;;;;;;;50.63;24.23;;;3.80;99.90;;;;;;5062649;28;20175;-71
2023/01/23 10:34:52;;;;;;;59.93;30.43;;;3.80;99.90;;;;;;5070664;28;20202;-71
2023/01/23 10:38:09;;;;;;;53.67;28.00;;;3.70;99.90;;;;;;5070049;28;20698;-72
2023/01/23 10:43:20;;;;;;;57.50;25.07;;;3.70;99.90;;;;;;5067676;28;20227;-72
2023/01/23 10:45:47;;;;;;;51.40;26.30;;;3.90;99.90;;;;;;5054895;28;20203;-72
2023/01/23 10:48:40;;;;;;;58.17;30.53;;;3.80;99.90;;;;;;5055204;28;20231;-71
2023/01/23 10:51:37;;;;;;;56.87;29.97;;;3.90;99.90;;;;;;5055031;28;20173;-72
2023/01/23 10:54:19;;;;;;;55.30;28.53;;;3.90;99.90;;;;;;5049752;28;20354;-71
2023/01/23 10:56:57;;;;;;;51.93;25.83;;;3.90;98.90;;;;;;5044101;28;20181;-71
2023/01/23 10:59:36;;;;;;;54.97;29.03;;;3.90;99.60;;;;;;5045435;28;20291;-72
2023/01/23 11:02:13;;;;;;;55.37;28.17;;;4.00;99.00;;;;;;5025901;28;20217;-72
2023/01/23 11:04:42;;;;;;;54.70;29.47;;;4.00;98.50;;;;;;5036795;28;20213;-71
2023/01/23 11:07:14;;;;;;;52.50;26.67;;;4.10;99.30;;;;;;5035392;28;20181;-71
2023/01/23 11:09:54;;;;;;;51.00;27.00;;;4.00;96.30;;;;;;5051226;28;20182;-72
2023/01/23 11:12:31;;;;;;;50.23;26.47;;;4.20;98.70;;;;;;5043265;28;20356;-72
2023/01/23 11:15:21;;;;;;;54.37;29.23;;;4.20;95.40;;;;;;5035908;28;20180;-72
2023/01/23 11:17:52;;;;;;;54.77;27.73;;;4.30;96.60;;;;;;5028365;28;20185;-71
2023/01/23 11:20:32;;;;;;;38.13;20.43;;;4.20;95.20;;;;;;5044111;28;20177;-70
2023/01/23 11:23:04;;;;;;;51.93;28.13;;;4.10;96.20;;;;;;5041951;28;20240;-71
2023/01/23 11:25:41;;;;;;;53.33;27.07;;;4.00;99.40;;;;;;5034377;28;20178;-72
2023/01/23 11:28:46;;;;;;;52.57;28.40;;;3.90;99.90;;;;;;5046337;28;20181;-72
2023/01/23 11:31:20;;;;;;;55.53;28.50;;;4.00;99.00;;;;;;5002234;28;20185;-71
2023/01/23 11:34:10;;;;;;;46.30;23.07;;;4.00;99.90;;;;;;5032653;28;20687;-72
2023/01/23 11:36:38;;;;;;;55.03;27.93;;;4.10;99.30;;;;;;5043310;28;20250;-72
2023/01/23 11:39:25;;;;;;;56.90;29.10;;;4.10;99.00;;;;;;5045416;28;20182;-73
2023/01/23 11:41:51;;;;;;;56.67;29.50;;;4.10;99.40;;;;;;5047665;28;20287;-72
2023/01/23 11:44:20;;;;;;;53.27;25.93;;;4.10;99.30;;;;;;5036992;28;20324;-72
2023/01/23 11:47:00;;;;;;;51.10;27.10;;;4.00;95.80;;;;;;5045166;28;20181;-73
2023/01/23 11:49:39;;;;;;;57.43;28.23;;;4.00;99.90;;;;;;5034433;28;20188;-73
2023/01/23 11:52:25;;;;;;;58.33;29.60;;;4.00;99.90;;;;;;5050573;28;20221;-73
2023/01/23 11:55:30;;;;;;;35.60;17.70;;;3.90;99.90;;;;;;5056219;28;20300;-72
2023/01/23 11:58:24;;;;;;;56.37;28.00;;;3.90;98.60;;;;;;5060941;28;20173;-71
2023/01/23 12:01:10;;;;;;;57.23;29.57;;;4.00;99.90;;;;;;5040544;28;20216;-72
2023/01/23 12:04:09;;;;;;;53.60;26.43;;;4.10;99.90;;;;;;5072127;28;20310;-72
2023/01/23 12:06:48;;;;;;;49.80;25.20;;;4.10;98.90;;;;;;5061687;28;20200;-72
2023/01/23 12:09:20;;;;;;;57.70;30.43;;;4.20;95.00;;;;;;5062507;28;20172;-72
2023/01/23 12:12:15;;;;;;;61.73;31.33;;;4.10;94.70;;;;;;5061180;28;20294;-73
2023/01/23 12:14:56;;;;;;;51.27;27.00;;;4.30;97.10;;;;;;5052350;28;20191;-73
2023/01/23 12:17:40;;;;;;;47.30;21.70;;;4.30;92.60;;;;;;5052478;28;20181;-73
2023/01/23 12:20:20;;;;;;;44.50;23.27;;;4.20;92.70;;;;;;5034412;28;20178;-73
2023/01/23 12:23:06;;;;;;;43.00;22.83;;;4.10;93.60;;;;;;5052170;28;20208;-72
2023/01/23 12:25:37;;;;;;;38.03;20.80;;;4.10;93.90;;;;;;5038001;28;20169;-71
2023/01/23 12:28:25;;;;;;;39.17;19.30;;;4.00;95.60;;;;;;5044776;28;20607;-73
2023/01/23 12:31:04;;;;;;;50.77;27.87;;;4.00;97.90;;;;;;5060880;28;20184;-73
2023/01/23 12:33:44;;;;;;;52.30;25.47;;;4.10;99.20;;;;;;5061571;28;20255;-73
2023/01/23 12:36:32;;;;;;;51.30;25.77;;;4.10;96.70;;;;;;5064193;28;20640;-73
2023/01/23 12:39:11;;;;;;;48.93;26.63;;;4.10;98.20;;;;;;5036008;28;20177;-73
2023/01/23 12:41:52;;;;;;;53.53;27.77;;;4.10;96.90;;;;;;5052732;28;20211;-73
2023/01/23 12:44:29;;;;;;;49.53;25.67;;;4.30;97.90;;;;;;5051421;28;20259;-72
2023/01/23 12:47:09;;;;;;;50.17;26.27;;;4.30;94.80;;;;;;5051875;28;20185;-73
2023/01/23 12:49:42;;;;;;;47.03;25.97;;;4.30;93.30;;;;;;5068146;28;20180;-73
2023/01/23 12:52:18;;;;;;;49.87;24.47;;;4.30;91.30;;;;;;5062115;28;20232;-73
2023/01/23 12:55:29;;;;;;;37.73;19.23;;;4.30;90.30;;;;;;5062912;28;20210;-72
2023/01/23 12:57:56;;;;;;;53.83;27.73;;;4.20;89.70;;;;;;5035779;28;20207;-72
2023/01/23 13:00:36;;;;;;;49.97;26.37;;;4.20;91.30;;;;;;5063244;28;20173;-73